コスラエ州 の空港の天気 - METARとTAF

コスラエ国際空港 ( PTSA / KSA ) - ミクロネシア連邦 コスラエ州
飛行場実況気象(Metar)
観測時間09/18 13:55 KOST (09/18 02:55 UTC)
風向・風速南東 5m/s
視程10km以上
天気現象
全天の8割程度の雲 雲底高度 640m
全天の8割程度の雲 雲底高度 3960m
全天の8割程度の雲 雲底高度 9140m
気温31℃
湿度66%
気圧1008hPa
METARPTSA 180255Z 13010KT 10SM BKN021 BKN130 BKN300 31/24 A2978
過去の天気等 Google飛行場航空写真 Wunderground天気予報

過去48時間のMETAR

飛行場予報(TAF)
発表時間: 9/18 16:20 KOST (9/18 05:20 UTC)
予報対象時間: 18日17時 KOST ~ 19日17時 KOST
風向・風速東南東 4m/s
視程10km以上
天気現象周辺でしゅう雨
全天の4割程度の雲 雲底高度 640m
全天の4割程度の雲 雲底高度 3660m
PTSA 180520Z 1806/1906 12008KT P6SM VCSH SCT021 SCT120